createdAt,value
2022-12-03T00:00:28.466Z,85.61
2022-12-03T00:01:25.636Z,86.19
2022-12-03T00:02:25.703Z,85.78
2022-12-03T00:03:25.680Z,85.51
2022-12-03T00:04:25.597Z,85.61
2022-12-03T00:05:26.550Z,85.72
2022-12-03T00:06:26.304Z,85.61
2022-12-03T00:07:25.586Z,85.82
2022-12-03T00:08:26.507Z,85.72
2022-12-03T00:09:25.540Z,85.41
2022-12-03T00:10:25.532Z,85.30
2022-12-03T00:11:25.529Z,85.41
2022-12-03T00:12:25.557Z,85.61
2022-12-03T00:13:25.496Z,85.99
2022-12-03T00:14:25.490Z,85.72
2022-12-03T00:15:25.491Z,85.30
2022-12-03T00:16:25.545Z,85.99
2022-12-03T00:17:25.448Z,86.19
2022-12-03T00:18:25.473Z,85.68
2022-12-03T00:19:25.433Z,85.26
2022-12-03T00:20:25.441Z,84.84
2022-12-03T00:21:25.409Z,84.74
2022-12-03T00:22:25.402Z,84.64
2022-12-03T00:23:25.385Z,84.43
2022-12-03T00:24:25.380Z,84.53
2022-12-03T00:25:25.395Z,84.84
2022-12-03T00:26:25.354Z,84.53
2022-12-03T00:27:25.346Z,84.53
2022-12-03T00:28:25.352Z,84.84
2022-12-03T00:29:25.336Z,85.05
2022-12-03T00:30:25.337Z,84.84
2022-12-03T00:31:25.373Z,84.43
2022-12-03T00:32:25.324Z,84.33
2022-12-03T00:33:25.283Z,84.64
2022-12-03T00:34:25.274Z,84.95
2022-12-03T00:35:26.217Z,84.95
2022-12-03T00:36:25.274Z,84.74
2022-12-03T00:37:25.263Z,84.33
2022-12-03T00:38:25.220Z,84.22
2022-12-03T00:39:25.215Z,84.22
2022-12-03T00:40:25.204Z,84.43
2022-12-03T00:41:25.181Z,84.33
2022-12-03T00:42:25.218Z,84.27
2022-12-03T00:43:25.185Z,84.27
2022-12-03T00:44:25.165Z,84.37
2022-12-03T00:45:25.148Z,84.68
2022-12-03T00:46:25.222Z,85.10
2022-12-03T00:47:25.174Z,85.10
2022-12-03T00:48:25.108Z,84.99
2022-12-03T00:49:25.105Z,84.78
2022-12-03T00:50:25.096Z,84.58
2022-12-03T00:51:25.080Z,84.47
2022-12-03T00:52:25.071Z,84.78
2022-12-03T00:53:25.098Z,84.89
2022-12-03T00:54:31.407Z,84.89
2022-12-03T00:55:26.028Z,85.10
2022-12-03T00:56:25.032Z,85.57
2022-12-03T00:57:25.015Z,85.47
2022-12-03T00:58:25.016Z,85.36
2022-12-03T00:59:25.011Z,85.26
2022-12-03T01:00:24.987Z,85.05
2022-12-03T01:01:25.023Z,84.84
2022-12-03T01:02:24.968Z,84.64
2022-12-03T01:03:24.948Z,84.64
2022-12-03T01:04:25.005Z,84.95
2022-12-03T01:05:24.933Z,84.74
2022-12-03T01:06:24.915Z,84.74
2022-12-03T01:07:24.982Z,84.53
2022-12-03T01:08:24.906Z,84.33
2022-12-03T01:09:24.909Z,84.33
2022-12-03T01:10:24.883Z,84.84
2022-12-03T01:11:24.860Z,85.05
2022-12-03T01:12:24.848Z,84.84
2022-12-03T01:13:24.840Z,84.53
2022-12-03T01:14:24.872Z,84.43
2022-12-03T01:15:24.815Z,84.43
2022-12-03T01:16:24.885Z,84.33
2022-12-03T01:17:24.807Z,84.64
2022-12-03T01:18:24.810Z,85.26
2022-12-03T01:19:24.771Z,85.36
2022-12-03T01:20:24.760Z,85.05
2022-12-03T01:21:24.750Z,85.26
2022-12-03T01:22:24.771Z,85.22
2022-12-03T01:23:24.738Z,84.81
2022-12-03T01:24:24.731Z,84.19
2022-12-03T01:25:24.701Z,84.19
2022-12-03T01:26:24.743Z,84.70
2022-12-03T01:27:24.681Z,84.60
2022-12-03T01:28:24.720Z,84.60
2022-12-03T01:29:24.672Z,84.08
2022-12-03T01:30:24.665Z,83.87
2022-12-03T01:31:24.722Z,84.29
2022-12-03T01:32:24.623Z,83.87
2022-12-03T01:33:24.622Z,83.77
2022-12-03T01:34:24.647Z,84.08
2022-12-03T01:35:24.602Z,84.19
2022-12-03T01:36:24.583Z,84.39
2022-12-03T01:37:24.576Z,84.60
2022-12-03T01:38:25.522Z,84.60
2022-12-03T01:39:24.581Z,84.29
2022-12-03T01:40:24.592Z,84.22
2022-12-03T01:41:24.533Z,84.50
2022-12-03T01:42:24.524Z,84.33
2022-12-03T01:43:24.497Z,84.43
2022-12-03T01:44:24.507Z,84.70
2022-12-03T01:45:24.485Z,84.43
2022-12-03T01:46:24.589Z,84.33
2022-12-03T01:47:24.478Z,84.33
2022-12-03T01:48:24.469Z,84.33
2022-12-03T01:49:24.463Z,84.33
2022-12-03T01:50:24.439Z,84.33
2022-12-03T01:51:24.438Z,84.53
2022-12-03T01:52:24.449Z,84.53
2022-12-03T01:53:24.430Z,84.33
2022-12-03T01:54:24.406Z,84.33
2022-12-03T01:55:24.375Z,84.53
2022-12-03T01:56:24.379Z,84.95
2022-12-03T01:57:24.361Z,85.05
2022-12-03T01:58:24.344Z,85.02
2022-12-03T01:59:24.357Z,84.70
2022-12-03T02:00:24.330Z,84.50
2022-12-03T02:01:24.387Z,84.60
2022-12-03T02:02:24.318Z,84.70
2022-12-03T02:03:24.301Z,84.39
2022-12-03T02:04:24.360Z,84.29
2022-12-03T02:05:24.269Z,83.98
2022-12-03T02:06:24.282Z,83.77
2022-12-03T02:07:24.338Z,83.67
2022-12-03T02:08:24.247Z,83.67
2022-12-03T02:09:24.248Z,83.67
2022-12-03T02:10:24.230Z,83.67
2022-12-03T02:11:24.205Z,83.77
2022-12-03T02:12:24.230Z,83.91
2022-12-03T02:13:24.181Z,83.81
2022-12-03T02:14:24.180Z,83.91
2022-12-03T02:15:24.159Z,84.01
2022-12-03T02:16:24.203Z,84.74
2022-12-03T02:17:24.130Z,84.95
2022-12-03T02:18:24.160Z,84.74
2022-12-03T02:19:24.111Z,84.53
2022-12-03T02:20:24.116Z,84.33
2022-12-03T02:21:24.119Z,84.39
2022-12-03T02:22:24.091Z,84.39
2022-12-03T02:23:24.077Z,84.29
2022-12-03T02:24:25.036Z,84.08
2022-12-03T02:25:24.072Z,83.77
2022-12-03T02:26:24.040Z,83.70
2022-12-03T02:27:24.042Z,84.01
2022-12-03T02:28:24.072Z,84.22
2022-12-03T02:29:24.002Z,84.01
2022-12-03T02:30:24.056Z,84.22
2022-12-03T02:31:24.056Z,84.43
2022-12-03T02:32:23.985Z,84.22
2022-12-03T02:33:23.991Z,84.33
2022-12-03T02:34:23.962Z,84.12
2022-12-03T02:35:23.958Z,84.01
2022-12-03T02:36:23.953Z,84.01
2022-12-03T02:37:23.911Z,84.01
2022-12-03T02:38:23.905Z,84.12
2022-12-03T02:39:23.909Z,84.22
2022-12-03T02:40:23.900Z,84.22
2022-12-03T02:41:23.864Z,84.33
2022-12-03T02:42:23.881Z,84.53
2022-12-03T02:43:23.855Z,84.33
2022-12-03T02:44:23.893Z,84.12
2022-12-03T02:45:23.834Z,83.91
2022-12-03T02:46:23.883Z,83.91
2022-12-03T02:47:23.803Z,84.05
2022-12-03T02:48:23.862Z,84.37
2022-12-03T02:49:23.780Z,84.37
2022-12-03T02:50:23.779Z,84.37
2022-12-03T02:51:23.795Z,84.58
2022-12-03T02:52:23.750Z,84.58
2022-12-03T02:53:23.772Z,84.68
2022-12-03T02:54:23.768Z,84.78
2022-12-03T02:55:23.709Z,84.68
2022-12-03T02:56:23.720Z,84.58
2022-12-03T02:57:23.718Z,84.37
2022-12-03T02:58:23.691Z,84.47
2022-12-03T02:59:23.709Z,84.58
2022-12-03T03:00:23.668Z,84.47
2022-12-03T03:01:23.771Z,84.37
2022-12-03T03:02:23.734Z,84.68
2022-12-03T03:03:23.630Z,84.47
2022-12-03T03:04:23.647Z,84.37
2022-12-03T03:05:23.660Z,84.47
2022-12-03T03:06:23.604Z,84.68
2022-12-03T03:07:23.816Z,84.78
2022-12-03T03:08:23.613Z,84.78
2022-12-03T03:09:23.563Z,84.89
2022-12-03T03:10:23.578Z,84.99
2022-12-03T03:11:23.559Z,84.89
2022-12-03T03:12:23.536Z,84.99
2022-12-03T03:13:23.545Z,84.99
2022-12-03T03:14:23.521Z,84.78
2022-12-03T03:15:23.500Z,84.78
2022-12-03T03:16:23.541Z,84.89
2022-12-03T03:17:23.501Z,84.89
2022-12-03T03:18:23.480Z,84.99
2022-12-03T03:19:23.451Z,84.99
2022-12-03T03:20:23.477Z,85.20
2022-12-03T03:21:23.463Z,85.30
2022-12-03T03:22:23.431Z,85.30
2022-12-03T03:23:23.425Z,85.41
2022-12-03T03:24:23.404Z,85.30
2022-12-03T03:25:24.332Z,85.30
2022-12-03T03:26:23.405Z,85.30
2022-12-03T03:27:23.392Z,85.20
2022-12-03T03:28:23.376Z,85.10
2022-12-03T03:29:23.362Z,85.13
2022-12-03T03:30:23.351Z,85.34
2022-12-03T03:31:23.354Z,85.55
2022-12-03T03:32:23.319Z,85.55
2022-12-03T03:33:23.302Z,85.75
2022-12-03T03:34:23.332Z,85.96
2022-12-03T03:35:23.273Z,85.96
2022-12-03T03:36:23.276Z,85.86
2022-12-03T03:37:23.271Z,85.75
2022-12-03T03:38:23.265Z,85.65
2022-12-03T03:39:23.297Z,85.65
2022-12-03T03:40:23.243Z,85.55
2022-12-03T03:41:23.218Z,85.55
2022-12-03T03:42:23.205Z,85.55
2022-12-03T03:43:23.202Z,85.65
2022-12-03T03:44:23.185Z,85.75
2022-12-03T03:45:28.827Z,85.65
2022-12-03T03:46:24.235Z,85.55
2022-12-03T03:47:23.156Z,85.44
2022-12-03T03:48:23.156Z,85.34
2022-12-03T03:49:23.126Z,85.55
2022-12-03T03:50:23.145Z,85.65
2022-12-03T03:51:23.095Z,85.65
2022-12-03T03:52:24.055Z,85.75
2022-12-03T03:53:24.028Z,85.96
2022-12-03T03:54:23.065Z,86.07
2022-12-03T03:55:23.092Z,85.96
2022-12-03T03:56:23.080Z,85.75
2022-12-03T03:57:23.049Z,85.65
2022-12-03T03:58:23.983Z,85.65
2022-12-03T03:59:23.038Z,85.44
2022-12-03T04:00:23.016Z,85.44
2022-12-03T04:01:23.031Z,85.44
2022-12-03T04:02:23.022Z,85.55
2022-12-03T04:03:22.989Z,85.55
2022-12-03T04:04:23.019Z,85.55
2022-12-03T04:05:22.959Z,85.44
2022-12-03T04:06:22.970Z,85.55
2022-12-03T04:07:22.945Z,85.55
2022-12-03T04:08:22.930Z,85.55
2022-12-03T04:09:22.939Z,85.44
2022-12-03T04:10:22.917Z,85.44
2022-12-03T04:11:22.918Z,85.44
2022-12-03T04:12:22.878Z,85.34
2022-12-03T04:13:22.889Z,85.34
2022-12-03T04:14:22.855Z,85.34
2022-12-03T04:15:22.845Z,85.44
2022-12-03T04:16:22.904Z,85.44
2022-12-03T04:17:22.820Z,85.34
2022-12-03T04:18:23.020Z,85.34
2022-12-03T04:19:23.755Z,85.34
2022-12-03T04:20:22.790Z,85.34
2022-12-03T04:21:22.783Z,85.34
2022-12-03T04:22:22.768Z,85.34
2022-12-03T04:23:27.743Z,85.24
2022-12-03T04:24:23.789Z,85.24
2022-12-03T04:25:22.762Z,85.24
2022-12-03T04:26:22.720Z,85.24
2022-12-03T04:27:22.730Z,85.24
2022-12-03T04:28:22.700Z,85.13
2022-12-03T04:29:22.721Z,85.13
2022-12-03T04:30:22.821Z,85.13
2022-12-03T04:31:22.736Z,85.24
2022-12-03T04:32:23.618Z,85.24
2022-12-03T04:33:22.680Z,85.13
2022-12-03T04:34:22.655Z,85.34
2022-12-03T04:35:22.724Z,85.34
2022-12-03T04:36:22.604Z,85.24
2022-12-03T04:37:22.605Z,85.13
2022-12-03T04:38:22.583Z,85.13
2022-12-03T04:39:22.614Z,85.34
2022-12-03T04:40:22.571Z,85.34
2022-12-03T04:41:22.575Z,85.44
2022-12-03T04:42:22.548Z,85.34
2022-12-03T04:43:22.550Z,85.24
2022-12-03T04:44:22.525Z,85.03
2022-12-03T04:45:22.543Z,85.03
2022-12-03T04:46:22.567Z,84.82
2022-12-03T04:47:22.514Z,84.72
2022-12-03T04:48:22.540Z,84.82
2022-12-03T04:49:22.488Z,84.92
2022-12-03T04:50:22.489Z,84.92
2022-12-03T04:51:22.443Z,85.03
2022-12-03T04:52:22.439Z,84.92
2022-12-03T04:53:22.437Z,84.82
2022-12-03T04:54:22.447Z,84.86
2022-12-03T04:55:22.415Z,84.86
2022-12-03T04:56:22.390Z,84.92
2022-12-03T04:57:22.410Z,85.06
2022-12-03T04:58:22.380Z,84.96
2022-12-03T04:59:22.367Z,84.86
2022-12-03T05:00:22.358Z,84.86
2022-12-03T05:01:22.577Z,84.86
2022-12-03T05:02:22.361Z,84.65
2022-12-03T05:03:22.323Z,84.75
2022-12-03T05:04:23.298Z,84.75
2022-12-03T05:05:22.478Z,84.75
2022-12-03T05:06:22.300Z,84.75
2022-12-03T05:07:22.282Z,84.65
2022-12-03T05:08:22.259Z,84.86
2022-12-03T05:09:22.251Z,84.96
2022-12-03T05:10:22.279Z,85.06
2022-12-03T05:11:22.704Z,85.17
2022-12-03T05:12:22.218Z,85.17
2022-12-03T05:13:22.214Z,85.06
2022-12-03T05:14:22.201Z,85.06
2022-12-03T05:15:23.641Z,85.06
2022-12-03T05:16:22.291Z,85.06
2022-12-03T05:17:22.169Z,85.06
2022-12-03T05:18:22.798Z,84.96
2022-12-03T05:19:23.112Z,84.86
2022-12-03T05:20:22.164Z,84.86
2022-12-03T05:21:22.308Z,84.86
2022-12-03T05:22:22.151Z,84.86
2022-12-03T05:23:22.126Z,84.86
2022-12-03T05:24:22.083Z,84.75
2022-12-03T05:25:22.092Z,84.65
2022-12-03T05:26:22.061Z,84.75
2022-12-03T05:27:24.053Z,84.75
2022-12-03T05:28:22.089Z,84.65
2022-12-03T05:29:22.041Z,84.75
2022-12-03T05:30:22.083Z,84.86
2022-12-03T05:31:22.102Z,84.86
2022-12-03T05:32:21.994Z,84.96
2022-12-03T05:33:22.132Z,84.96
2022-12-03T05:34:22.030Z,85.06
2022-12-03T05:35:21.975Z,84.86
2022-12-03T05:36:21.959Z,84.75
2022-12-03T05:37:21.958Z,84.65
2022-12-03T05:38:21.934Z,84.65
2022-12-03T05:39:21.932Z,84.86
2022-12-03T05:40:21.946Z,84.96
2022-12-03T05:41:22.649Z,85.06
2022-12-03T05:42:21.895Z,85.06
2022-12-03T05:43:21.877Z,85.06
2022-12-03T05:44:21.875Z,85.06
2022-12-03T05:45:21.869Z,85.06
2022-12-03T05:46:21.959Z,85.06
2022-12-03T05:47:21.865Z,85.06
2022-12-03T05:48:21.822Z,85.06
2022-12-03T05:49:22.665Z,84.96
2022-12-03T05:50:22.448Z,84.96
2022-12-03T05:51:21.795Z,84.86
2022-12-03T05:52:22.176Z,84.86
2022-12-03T05:53:21.785Z,84.75
2022-12-03T05:54:23.238Z,84.75
2022-12-03T05:55:21.766Z,84.65
2022-12-03T05:56:21.742Z,84.75
2022-12-03T05:57:21.728Z,84.96
2022-12-03T05:58:21.759Z,85.17
2022-12-03T05:59:21.713Z,85.17
2022-12-03T06:00:21.920Z,85.17
2022-12-03T06:01:22.652Z,85.17
2022-12-03T06:02:21.777Z,85.17
2022-12-03T06:03:23.193Z,85.06
2022-12-03T06:04:21.688Z,85.06
2022-12-03T06:05:22.110Z,84.96
2022-12-03T06:06:21.619Z,84.96
2022-12-03T06:07:21.637Z,84.96
2022-12-03T06:08:21.629Z,84.86
2022-12-03T06:09:21.616Z,84.75
2022-12-03T06:10:21.646Z,84.75
2022-12-03T06:11:21.600Z,84.86
2022-12-03T06:12:21.561Z,84.86
2022-12-03T06:13:21.566Z,84.86
2022-12-03T06:14:21.565Z,84.86
2022-12-03T06:15:22.495Z,84.86
2022-12-03T06:16:21.600Z,84.86
2022-12-03T06:17:21.520Z,84.96
2022-12-03T06:18:21.501Z,84.86
2022-12-03T06:19:22.969Z,84.96
2022-12-03T06:20:21.485Z,85.06
2022-12-03T06:21:21.501Z,85.06
2022-12-03T06:22:21.471Z,84.96
2022-12-03T06:23:21.450Z,84.96
2022-12-03T06:24:21.441Z,84.96
2022-12-03T06:25:22.261Z,85.17
2022-12-03T06:26:21.413Z,85.17
2022-12-03T06:27:21.485Z,85.06
2022-12-03T06:28:21.383Z,85.06
2022-12-03T06:29:22.158Z,85.06
2022-12-03T06:30:21.374Z,84.96
2022-12-03T06:31:22.911Z,84.96
2022-12-03T06:32:21.343Z,84.86
2022-12-03T06:33:22.184Z,84.75
2022-12-03T06:34:21.327Z,84.86
2022-12-03T06:35:21.381Z,84.96
2022-12-03T06:36:23.318Z,85.06
2022-12-03T06:37:21.323Z,85.17
2022-12-03T06:38:21.323Z,85.17
2022-12-03T06:39:21.279Z,84.96
2022-12-03T06:40:21.288Z,85.06
2022-12-03T06:41:21.443Z,85.17
2022-12-03T06:42:21.554Z,85.28
2022-12-03T06:43:21.315Z,85.17
2022-12-03T06:44:21.245Z,85.17
2022-12-03T06:45:21.245Z,85.06
2022-12-03T06:46:21.257Z,84.96
2022-12-03T06:47:21.241Z,85.06
2022-12-03T06:48:22.137Z,85.06
2022-12-03T06:49:21.167Z,85.21
2022-12-03T06:50:21.351Z,85.31
2022-12-03T06:51:22.119Z,85.21
2022-12-03T06:52:21.131Z,85.31
2022-12-03T06:53:22.088Z,85.17
2022-12-03T06:54:21.296Z,85.21
2022-12-03T06:55:21.135Z,85.17
2022-12-03T06:56:22.545Z,85.21
2022-12-03T06:57:21.087Z,85.06
2022-12-03T06:58:21.198Z,85.17
2022-12-03T06:59:21.045Z,85.17
2022-12-03T07:00:21.071Z,85.17
2022-12-03T07:01:21.478Z,85.21
2022-12-03T07:02:21.042Z,85.11
2022-12-03T07:03:21.093Z,85.21
2022-12-03T07:04:21.009Z,85.11
2022-12-03T07:05:21.963Z,85.31
2022-12-03T07:06:20.980Z,85.42
2022-12-03T07:07:21.384Z,85.42
2022-12-03T07:08:20.964Z,85.52
2022-12-03T07:09:20.944Z,85.42
2022-12-03T07:10:20.920Z,85.42
2022-12-03T07:11:20.930Z,85.42
2022-12-03T07:12:22.365Z,85.42
2022-12-03T07:13:21.904Z,85.42
2022-12-03T07:14:20.880Z,85.42
2022-12-03T07:15:22.855Z,85.42
2022-12-03T07:16:20.924Z,85.38
2022-12-03T07:17:20.884Z,85.38
2022-12-03T07:18:20.845Z,85.28
2022-12-03T07:19:21.759Z,85.17
2022-12-03T07:20:22.284Z,85.06
2022-12-03T07:21:21.041Z,85.11
2022-12-03T07:22:20.795Z,85.21
2022-12-03T07:23:20.831Z,85.31
2022-12-03T07:24:20.818Z,85.31
2022-12-03T07:25:23.421Z,85.17
2022-12-03T07:26:20.758Z,85.11
2022-12-03T07:27:20.743Z,85.11
2022-12-03T07:28:20.869Z,85.21
2022-12-03T07:29:20.758Z,85.17
2022-12-03T07:30:20.714Z,85.28
2022-12-03T07:31:20.774Z,85.17
2022-12-03T07:32:20.785Z,85.06
2022-12-03T07:33:20.674Z,84.86
2022-12-03T07:34:20.717Z,84.86
2022-12-03T07:35:20.659Z,84.75
2022-12-03T07:36:20.649Z,84.65
2022-12-03T07:37:23.260Z,84.75
2022-12-03T07:38:20.623Z,84.86
2022-12-03T07:39:20.628Z,84.86
2022-12-03T07:40:20.661Z,84.65
2022-12-03T07:41:21.549Z,84.55
2022-12-03T07:42:20.580Z,84.65
2022-12-03T07:43:20.687Z,84.55
2022-12-03T07:44:20.594Z,84.44
2022-12-03T07:45:20.567Z,84.38
2022-12-03T07:46:20.594Z,84.59
2022-12-03T07:47:20.569Z,84.69
2022-12-03T07:48:20.726Z,84.90
2022-12-03T07:49:20.522Z,84.86
2022-12-03T07:50:20.499Z,84.75
2022-12-03T07:51:20.529Z,84.65
2022-12-03T07:52:20.471Z,84.65
2022-12-03T07:53:20.469Z,84.65
2022-12-03T07:54:20.448Z,84.65
2022-12-03T07:55:21.902Z,84.65
2022-12-03T07:56:20.437Z,84.55
2022-12-03T07:57:20.465Z,84.44
2022-12-03T07:58:20.433Z,84.23
2022-12-03T07:59:20.398Z,84.13
2022-12-03T08:00:20.423Z,84.44
2022-12-03T08:01:20.447Z,84.51
2022-12-03T08:02:21.793Z,84.30
2022-12-03T08:03:20.382Z,84.30
2022-12-03T08:04:20.348Z,83.99
2022-12-03T08:05:20.327Z,83.78
2022-12-03T08:06:20.311Z,83.78
2022-12-03T08:07:20.299Z,83.68
2022-12-03T08:08:20.428Z,83.47
2022-12-03T08:09:21.203Z,83.37
2022-12-03T08:10:20.407Z,83.26
2022-12-03T08:11:20.263Z,83.16
2022-12-03T08:12:20.242Z,83.16
2022-12-03T08:13:20.269Z,82.84
2022-12-03T08:14:20.276Z,82.84
2022-12-03T08:15:21.172Z,82.95
2022-12-03T08:16:21.219Z,82.84
2022-12-03T08:17:20.203Z,82.74
2022-12-03T08:18:20.184Z,82.74
2022-12-03T08:19:20.185Z,82.74
2022-12-03T08:20:20.647Z,82.50
2022-12-03T08:21:20.237Z,82.29
2022-12-03T08:22:20.153Z,82.29
2022-12-03T08:23:20.137Z,81.87
2022-12-03T08:24:20.123Z,81.67
2022-12-03T08:25:20.105Z,81.35
2022-12-03T08:26:20.123Z,81.35
2022-12-03T08:27:20.207Z,81.35
2022-12-03T08:28:20.088Z,81.25
2022-12-03T08:29:20.295Z,81.25
2022-12-03T08:30:20.124Z,81.35
2022-12-03T08:31:20.177Z,81.15
2022-12-03T08:32:20.111Z,81.11
2022-12-03T08:33:20.043Z,80.90
2022-12-03T08:34:20.018Z,80.90
2022-12-03T08:35:20.021Z,80.90
2022-12-03T08:36:19.994Z,80.49
2022-12-03T08:37:19.993Z,80.38
2022-12-03T08:38:20.076Z,80.38
2022-12-03T08:39:19.965Z,80.38
2022-12-03T08:40:19.945Z,80.28
2022-12-03T08:41:20.120Z,80.69
2022-12-03T08:42:20.078Z,81.94
2022-12-03T08:43:19.946Z,81.73
2022-12-03T08:44:19.945Z,81.42
2022-12-03T08:45:19.890Z,81.01
2022-12-03T08:46:19.951Z,80.59
2022-12-03T08:47:19.870Z,80.24
2022-12-03T08:48:19.869Z,79.83
2022-12-03T08:49:19.857Z,79.72
2022-12-03T08:50:19.866Z,79.65
2022-12-03T08:51:20.013Z,79.24
2022-12-03T08:52:19.839Z,79.44
2022-12-03T08:53:19.802Z,79.55
2022-12-03T08:54:19.820Z,79.44
2022-12-03T08:55:19.799Z,79.34
2022-12-03T08:56:19.952Z,79.44
2022-12-03T08:57:21.708Z,79.55
2022-12-03T08:58:19.823Z,79.65
2022-12-03T08:59:19.833Z,79.55
2022-12-03T09:00:19.769Z,79.44
2022-12-03T09:01:19.816Z,79.58
2022-12-03T09:02:19.726Z,79.58
2022-12-03T09:03:19.765Z,79.80
2022-12-03T09:04:19.759Z,79.80
2022-12-03T09:05:19.671Z,79.80
2022-12-03T09:06:20.493Z,79.80
2022-12-03T09:07:19.661Z,79.94
2022-12-03T09:08:19.820Z,80.04
2022-12-03T09:09:21.095Z,80.25
2022-12-03T09:10:19.737Z,80.25
2022-12-03T09:11:19.607Z,80.25
2022-12-03T09:12:19.980Z,80.46
2022-12-03T09:13:19.896Z,80.35
2022-12-03T09:14:20.598Z,80.46
2022-12-03T09:15:19.574Z,81.70
2022-12-03T09:16:19.774Z,82.53
2022-12-03T09:17:19.775Z,82.81
2022-12-03T09:18:19.984Z,82.18
2022-12-03T09:19:19.711Z,81.46
2022-12-03T09:20:19.510Z,80.94
2022-12-03T09:21:19.511Z,80.83
2022-12-03T09:22:20.342Z,80.83
2022-12-03T09:23:19.484Z,80.52
2022-12-03T09:24:20.487Z,80.32
2022-12-03T09:25:19.481Z,80.11
2022-12-03T09:26:19.632Z,80.32
2022-12-03T09:27:19.453Z,80.32
2022-12-03T09:28:19.682Z,80.21
2022-12-03T09:29:19.421Z,80.11
2022-12-03T09:30:19.423Z,79.90
2022-12-03T09:31:19.456Z,79.80
2022-12-03T09:32:19.446Z,79.80
2022-12-03T09:33:19.360Z,79.90
2022-12-03T09:34:19.391Z,80.00
2022-12-03T09:35:19.354Z,79.90
2022-12-03T09:36:19.332Z,79.90
2022-12-03T09:37:19.339Z,79.80
2022-12-03T09:38:19.313Z,79.90
2022-12-03T09:39:19.328Z,79.90
2022-12-03T09:40:19.308Z,80.00
2022-12-03T09:41:19.322Z,80.21
2022-12-03T09:42:19.282Z,80.21
2022-12-03T09:43:19.267Z,80.21
2022-12-03T09:44:19.256Z,80.11
2022-12-03T09:45:19.224Z,80.00
2022-12-03T09:46:19.385Z,79.90
2022-12-03T09:47:19.369Z,80.00
2022-12-03T09:48:19.210Z,80.11
2022-12-03T09:49:19.321Z,80.11
2022-12-03T09:50:19.192Z,80.00
2022-12-03T09:51:19.197Z,79.90
2022-12-03T09:52:19.277Z,80.00
2022-12-03T09:53:19.757Z,80.00
2022-12-03T09:54:19.136Z,79.97
2022-12-03T09:55:19.518Z,80.07
2022-12-03T09:56:19.332Z,79.86
2022-12-03T09:57:19.131Z,79.86
2022-12-03T09:58:19.093Z,79.97
2022-12-03T09:59:20.544Z,79.86
2022-12-03T10:00:19.081Z,79.65
2022-12-03T10:01:20.081Z,79.55
2022-12-03T10:02:19.152Z,79.76
2022-12-03T10:03:19.074Z,79.55
2022-12-03T10:04:19.129Z,79.44
2022-12-03T10:05:19.006Z,79.55
2022-12-03T10:06:19.001Z,79.55
2022-12-03T10:07:19.972Z,79.34
2022-12-03T10:08:19.118Z,79.55
2022-12-03T10:09:18.963Z,79.86
2022-12-03T10:10:19.072Z,79.76
2022-12-03T10:11:18.971Z,79.76
2022-12-03T10:12:18.950Z,79.55
2022-12-03T10:13:25.331Z,79.65
2022-12-03T10:14:19.915Z,79.65
2022-12-03T10:15:18.902Z,79.86
2022-12-03T10:16:19.042Z,79.97
2022-12-03T10:17:18.927Z,79.86
2022-12-03T10:18:18.862Z,79.97
2022-12-03T10:19:18.892Z,80.07
2022-12-03T10:20:18.931Z,80.07
2022-12-03T10:21:19.025Z,79.93
2022-12-03T10:22:18.817Z,79.83
2022-12-03T10:23:19.001Z,79.72
2022-12-03T10:24:18.960Z,79.61
2022-12-03T10:25:18.822Z,79.72
2022-12-03T10:26:18.867Z,79.83
2022-12-03T10:27:18.933Z,79.72
2022-12-03T10:28:18.776Z,79.61
2022-12-03T10:29:18.744Z,79.51
2022-12-03T10:30:19.615Z,79.51
2022-12-03T10:31:18.810Z,79.51
2022-12-03T10:32:18.865Z,79.51
2022-12-03T10:33:19.413Z,79.41
2022-12-03T10:34:18.694Z,79.72
2022-12-03T10:35:18.676Z,79.72
2022-12-03T10:36:18.707Z,79.61
2022-12-03T10:37:18.725Z,79.83
2022-12-03T10:38:18.643Z,79.93
2022-12-03T10:39:18.805Z,80.04
2022-12-03T10:40:18.679Z,80.14
2022-12-03T10:41:18.753Z,80.24
2022-12-03T10:42:18.610Z,80.14
2022-12-03T10:43:18.660Z,79.93
2022-12-03T10:44:18.591Z,79.93
2022-12-03T10:45:18.581Z,79.83
2022-12-03T10:46:18.764Z,79.72
2022-12-03T10:47:18.757Z,79.72
2022-12-03T10:48:18.767Z,79.72
2022-12-03T10:49:18.620Z,79.83
2022-12-03T10:50:18.672Z,79.83
2022-12-03T10:51:18.497Z,79.72
2022-12-03T10:52:24.054Z,79.83
2022-12-03T10:53:19.579Z,79.93
2022-12-03T10:54:18.485Z,80.14
2022-12-03T10:55:19.440Z,80.35
2022-12-03T10:56:18.458Z,80.35
2022-12-03T10:57:18.456Z,79.93
2022-12-03T10:58:18.469Z,79.51
2022-12-03T10:59:18.477Z,79.30
2022-12-03T11:00:18.604Z,79.30
2022-12-03T11:01:18.486Z,79.41
2022-12-03T11:02:18.389Z,79.51
2022-12-03T11:03:18.409Z,79.72
2022-12-03T11:04:18.390Z,79.61
2022-12-03T11:05:18.392Z,79.61
2022-12-03T11:06:18.342Z,79.72
2022-12-03T11:07:18.333Z,79.61
2022-12-03T11:08:18.381Z,79.72
2022-12-03T11:09:18.315Z,79.72
2022-12-03T11:10:18.304Z,79.72
2022-12-03T11:11:18.318Z,79.83
2022-12-03T11:12:18.272Z,79.72
2022-12-03T11:13:18.369Z,79.61
2022-12-03T11:14:22.903Z,79.61
2022-12-03T11:15:18.243Z,79.61
2022-12-03T11:16:18.363Z,79.61
2022-12-03T11:17:19.174Z,79.61
2022-12-03T11:18:18.240Z,79.61
2022-12-03T11:19:18.204Z,79.61
2022-12-03T11:20:22.561Z,79.72
2022-12-03T11:21:18.182Z,79.72
2022-12-03T11:22:18.164Z,79.72
2022-12-03T11:23:18.183Z,79.61
2022-12-03T11:24:18.181Z,79.72
2022-12-03T11:25:18.346Z,79.72
2022-12-03T11:26:19.753Z,79.61
2022-12-03T11:27:18.115Z,79.61
2022-12-03T11:28:18.124Z,79.51
2022-12-03T11:29:18.103Z,79.30
2022-12-03T11:30:19.034Z,79.41
2022-12-03T11:31:18.129Z,79.51
2022-12-03T11:32:18.064Z,79.72
2022-12-03T11:33:18.049Z,79.72
2022-12-03T11:34:18.042Z,79.93
2022-12-03T11:35:18.047Z,79.83
2022-12-03T11:36:18.055Z,79.83
2022-12-03T11:37:18.037Z,79.93
2022-12-03T11:38:18.004Z,79.93
2022-12-03T11:39:17.978Z,79.83
2022-12-03T11:40:17.988Z,79.93
2022-12-03T11:41:17.961Z,80.04
2022-12-03T11:42:18.069Z,80.24
2022-12-03T11:43:17.936Z,80.24
2022-12-03T11:44:17.937Z,80.04
2022-12-03T11:45:17.917Z,79.93
2022-12-03T11:46:17.958Z,79.72
2022-12-03T11:47:17.925Z,79.76
2022-12-03T11:48:17.979Z,79.72
2022-12-03T11:49:17.868Z,79.65
2022-12-03T11:50:18.547Z,79.76
2022-12-03T11:51:17.972Z,79.86
2022-12-03T11:52:17.849Z,79.86
2022-12-03T11:53:17.840Z,79.86
2022-12-03T11:54:17.828Z,79.97
2022-12-03T11:55:17.813Z,79.86
2022-12-03T11:56:17.839Z,80.07
2022-12-03T11:57:17.818Z,80.18
2022-12-03T11:58:17.825Z,80.14
2022-12-03T11:59:17.780Z,80.04
2022-12-03T12:00:17.761Z,80.04
2022-12-03T12:01:17.749Z,80.07
2022-12-03T12:02:17.729Z,79.93
2022-12-03T12:03:17.933Z,79.93
2022-12-03T12:04:17.847Z,79.97
2022-12-03T12:05:17.700Z,79.93
2022-12-03T12:06:17.699Z,79.97
2022-12-03T12:07:17.769Z,79.97
2022-12-03T12:08:17.955Z,80.07
2022-12-03T12:09:17.726Z,80.28
2022-12-03T12:10:17.672Z,80.35
2022-12-03T12:11:17.631Z,80.35
2022-12-03T12:12:17.617Z,80.35
2022-12-03T12:13:17.602Z,80.35
2022-12-03T12:14:17.642Z,80.45
2022-12-03T12:15:17.601Z,80.55
2022-12-03T12:16:17.660Z,80.38
2022-12-03T12:17:17.556Z,80.49
2022-12-03T12:18:17.560Z,80.49
2022-12-03T12:19:17.594Z,80.28
2022-12-03T12:20:17.566Z,80.07
2022-12-03T12:21:17.526Z,79.97
2022-12-03T12:22:17.515Z,79.86
2022-12-03T12:23:17.508Z,79.97
2022-12-03T12:24:17.669Z,80.07
2022-12-03T12:25:17.501Z,80.07
2022-12-03T12:26:17.515Z,80.07
2022-12-03T12:27:17.464Z,80.07
2022-12-03T12:28:17.554Z,80.18
2022-12-03T12:29:17.468Z,80.07
2022-12-03T12:30:17.472Z,80.18
2022-12-03T12:31:17.452Z,80.38
2022-12-03T12:32:17.488Z,80.38
2022-12-03T12:33:17.398Z,80.49
2022-12-03T12:34:17.377Z,80.18
2022-12-03T12:35:17.871Z,80.28
2022-12-03T12:36:17.467Z,80.49
2022-12-03T12:37:17.354Z,80.49
2022-12-03T12:38:17.473Z,80.38
2022-12-03T12:39:17.339Z,80.38
2022-12-03T12:40:17.611Z,80.49
2022-12-03T12:41:17.315Z,80.49
2022-12-03T12:42:18.157Z,80.38
2022-12-03T12:43:23.281Z,80.18
2022-12-03T12:44:18.507Z,80.18
2022-12-03T12:45:17.568Z,80.28
2022-12-03T12:46:46.549Z,80.59
2022-12-03T12:47:18.320Z,80.59
2022-12-03T12:48:17.283Z,80.69
2022-12-03T12:49:17.281Z,80.59
2022-12-03T12:50:17.560Z,80.49
2022-12-03T12:51:17.252Z,80.49
2022-12-03T12:52:17.188Z,80.59